Time;durP1;ratioP1;P1;durP2;ratioP2;P2;SDS_P1;SDS_P2;PMS_P1;PMS_P2;Temp;Humidity;BMP_temperature;BMP_pressure;BME280_temperature;BME280_humidity;BME280_pressure;Samples;Min_cycle;Max_cycle;Signal;HPM_P1;HPM_P2
2021/08/06 00:01:04;;;;;;;3.60;2.20;;;;;-128.00;-1.00;16.14;85.28;99037.75;96738;1176;68056;-60
2021/08/06 00:03:13;;;;;;;2.50;2.00;;;;;-128.00;-1.00;16.15;85.07;99038.58;96726;1177;68546;-61
2021/08/06 00:05:22;;;;;;;2.60;2.00;;;;;-128.00;-1.00;16.12;85.23;99026.30;96682;1176;86442;-63
2021/08/06 00:07:31;;;;;;;2.90;1.90;;;;;-128.00;-1.00;16.17;85.27;99028.23;96688;1177;73561;-63
2021/08/06 00:09:42;;;;;;;4.80;2.20;;;;;-128.00;-1.00;16.19;84.90;99028.80;96633;1177;81517;-61
2021/08/06 00:11:57;;;;;;;2.70;2.00;;;;;-128.00;-1.00;16.15;85.37;99033.13;96767;1176;67373;-59
2021/08/06 00:14:07;;;;;;;2.60;2.10;;;;;-128.00;-1.00;16.21;85.05;99022.00;96688;1177;69294;-65
2021/08/06 00:16:17;;;;;;;4.20;2.20;;;;;-128.00;-1.00;16.17;85.44;99026.34;96805;1176;85307;-65
2021/08/06 00:18:29;;;;;;;2.60;2.20;;;;;-128.00;-1.00;16.21;85.12;99027.45;96792;1176;75246;-63
2021/08/06 00:20:38;;;;;;;4.10;2.00;;;;;-128.00;-1.00;16.22;85.21;99023.66;96603;1177;80390;-62
2021/08/06 00:22:47;;;;;;;5.40;2.50;;;;;-128.00;-1.00;16.22;85.06;99022.83;96669;1177;66121;-65
2021/08/06 00:24:56;;;;;;;2.80;1.90;;;;;-128.00;-1.00;16.25;85.16;99016.86;96630;1177;68241;-65
2021/08/06 00:27:06;;;;;;;3.30;2.30;;;;;-128.00;-1.00;16.28;84.87;99028.08;96643;1177;86010;-63
2021/08/06 00:29:19;;;;;;;3.90;2.00;;;;;-128.00;-1.00;16.32;84.89;99022.91;96761;1177;75547;-56
2021/08/06 00:31:31;;;;;;;3.50;1.90;;;;;-128.00;-1.00;16.30;85.10;99019.63;96725;1176;81337;-56
2021/08/06 00:33:41;;;;;;;2.10;1.90;;;;;-128.00;-1.00;16.24;85.18;99016.03;96770;1177;67102;-62
2021/08/06 00:35:52;;;;;;;2.40;1.80;;;;;-128.00;-1.00;16.24;85.09;99012.48;96768;1176;68047;-66
2021/08/06 00:38:02;;;;;;;2.60;2.00;;;;;-128.00;-1.00;16.24;85.10;99010.58;96796;1176;87290;-64
2021/08/06 00:40:14;;;;;;;4.90;2.00;;;;;-128.00;-1.00;16.22;85.16;99009.20;96749;1177;74744;-53
2021/08/06 00:42:24;;;;;;;2.30;2.00;;;;;-128.00;-1.00;16.22;85.53;98990.13;96684;1177;81435;-57
2021/08/06 00:44:32;;;;;;;4.20;2.20;;;;;-128.00;-1.00;16.19;85.51;98996.09;96738;1176;67411;-56
2021/08/06 00:46:42;;;;;;;5.30;2.10;;;;;-128.00;-1.00;16.16;85.36;99002.06;96691;1177;69900;-56
2021/08/06 00:48:53;;;;;;;3.80;2.00;;;;;-128.00;-1.00;16.12;85.69;98990.88;96775;1177;86531;-65
2021/08/06 00:51:03;;;;;;;4.00;2.10;;;;;-128.00;-1.00;16.13;85.64;98991.67;96644;1177;74283;-63
2021/08/06 00:53:12;;;;;;;3.50;2.20;;;;;-128.00;-1.00;16.16;85.82;98980.27;96793;1176;81813;-68
2021/08/06 00:55:21;;;;;;;3.80;2.20;;;;;-128.00;-1.00;16.15;85.46;98978.64;96527;1177;68418;-57
2021/08/06 00:57:30;;;;;;;3.60;2.10;;;;;-128.00;-1.00;16.15;85.49;98971.27;96786;1177;67621;-57
2021/08/06 00:59:40;;;;;;;2.20;1.90;;;;;-128.00;-1.00;16.16;85.95;98969.36;96681;1177;85690;-57
2021/08/06 01:01:57;;;;;;;3.60;2.10;;;;;-128.00;-1.00;16.17;85.60;98971.02;96807;1176;74198;-57
2021/08/06 01:04:14;;;;;;;3.60;1.90;;;;;-128.00;-1.00;16.12;85.92;98962.81;96722;1177;80601;-59
2021/08/06 01:06:36;;;;;;;3.60;2.20;;;;;-128.00;-1.00;16.10;85.72;98960.33;96683;1177;65939;-57
2021/08/06 01:08:55;;;;;;;3.40;2.40;;;;;-128.00;-1.00;16.10;85.75;98957.61;96678;1176;68999;-66
2021/08/06 01:11:08;;;;;;;2.20;1.80;;;;;-128.00;-1.00;16.10;85.68;98957.61;96573;1185;86099;-68
2021/08/06 01:13:27;;;;;;;2.60;2.00;;;;;-128.00;-1.00;16.07;85.77;98944.50;96691;1177;74059;-66
2021/08/06 01:15:38;;;;;;;3.70;1.90;;;;;-128.00;-1.00;16.12;85.62;98955.47;96606;1177;80734;-57
2021/08/06 01:17:49;;;;;;;2.00;1.70;;;;;-128.00;-1.00;16.11;86.06;98945.64;96718;1177;67565;-59
2021/08/06 01:20:07;;;;;;;3.40;1.90;;;;;-128.00;-1.00;16.06;85.88;98947.50;96630;1177;68188;-57
2021/08/06 01:22:23;;;;;;;3.70;1.90;;;;;-128.00;-1.00;16.13;86.03;98938.02;96643;1177;87106;-58
2021/08/06 01:24:35;;;;;;;2.10;1.70;;;;;-128.00;-1.00;16.11;85.72;98937.46;96616;1177;75423;-63
2021/08/06 01:26:47;;;;;;;2.50;1.90;;;;;-128.00;-1.00;16.09;85.99;98933.36;96679;1177;81105;-65
2021/08/06 01:28:56;;;;;;;2.30;1.70;;;;;-128.00;-1.00;16.05;86.36;98929.50;96707;1176;68924;-67
2021/08/06 01:31:06;;;;;;;2.40;1.70;;;;;-128.00;-1.00;16.02;86.59;98924.56;96802;1176;69797;-66
2021/08/06 01:33:17;;;;;;;2.60;1.60;;;;;-128.00;-1.00;15.96;86.40;98915.53;96735;1176;87029;-67
2021/08/06 01:35:27;;;;;;;2.50;1.30;;;;;-128.00;-1.00;15.95;86.51;98913.91;96764;1177;73306;-66
2021/08/06 01:37:36;;;;;;;2.50;1.60;;;;;-128.00;-1.00;15.97;86.23;98910.91;96789;1177;81731;-66
2021/08/06 01:39:45;;;;;;;2.30;1.50;;;;;-128.00;-1.00;15.90;86.43;98908.42;96567;1177;67896;-66
2021/08/06 01:42:06;;;;;;;2.40;1.80;;;;;-128.00;-1.00;15.92;86.14;98896.19;96726;1177;68516;-65
2021/08/06 01:44:24;;;;;;;2.60;1.70;;;;;-128.00;-1.00;15.97;86.29;98891.84;96789;1176;86535;-57
2021/08/06 01:46:41;;;;;;;4.30;1.80;;;;;-128.00;-1.00;15.96;86.53;98903.84;96718;1177;75037;-56
2021/08/06 01:49:10;;;;;;;2.30;1.60;;;;;-128.00;-1.00;15.96;86.35;98901.91;96669;1177;80438;-55
2021/08/06 01:51:22;;;;;;;3.10;1.70;;;;;-128.00;-1.00;15.99;86.03;98897.88;96645;1177;69103;-56
2021/08/06 01:53:32;;;;;;;3.30;1.60;;;;;-128.00;-1.00;15.98;86.37;98893.50;96643;1177;68763;-57
2021/08/06 01:55:48;;;;;;;2.40;1.80;;;;;-128.00;-1.00;15.91;86.50;98897.26;96618;1176;87220;-54
2021/08/06 01:57:59;;;;;;;2.50;1.50;;;;;-128.00;-1.00;15.86;87.02;98886.33;96771;1177;74798;-55
2021/08/06 02:00:11;;;;;;;3.90;2.00;;;;;-128.00;-1.00;15.84;86.76;98874.88;96777;1177;80818;-68
2021/08/06 02:02:21;;;;;;;2.40;1.80;;;;;-128.00;-1.00;15.87;86.64;98881.71;96789;1177;68578;-66
2021/08/06 02:04:31;;;;;;;2.60;1.80;;;;;-128.00;-1.00;15.86;87.28;98880.06;96760;1176;68843;-66
2021/08/06 02:06:40;;;;;;;2.40;1.50;;;;;-128.00;-1.00;15.81;87.35;98875.41;96764;1176;86547;-66
2021/08/06 02:08:50;;;;;;;2.60;1.40;;;;;-128.00;-1.00;15.77;86.94;98878.88;96482;1179;75500;-64
2021/08/06 02:10:59;;;;;;;2.50;1.70;;;;;-128.00;-1.00;15.75;87.08;98865.55;96710;1176;82131;-65
2021/08/06 02:13:08;;;;;;;2.00;1.40;;;;;-128.00;-1.00;15.76;86.98;98861.75;96830;1177;68116;-66
2021/08/06 02:15:19;;;;;;;2.60;1.20;;;;;-128.00;-1.00;15.84;87.04;98869.44;96711;1177;67817;-56
2021/08/06 02:17:29;;;;;;;1.90;1.40;;;;;-128.00;-1.00;15.81;86.93;98856.34;96643;1177;87223;-55
2021/08/06 02:19:39;;;;;;;2.40;1.60;;;;;-128.00;-1.00;15.85;86.93;98853.89;96746;1176;74931;-56
2021/08/06 02:21:55;;;;;;;2.00;1.10;;;;;-128.00;-1.00;15.84;86.91;98842.20;96676;1177;81484;-56
2021/08/06 02:24:09;;;;;;;3.30;1.30;;;;;-128.00;-1.00;15.83;87.38;98851.45;96822;1177;67334;-65
2021/08/06 02:26:20;;;;;;;2.30;1.10;;;;;-128.00;-1.00;15.85;87.00;98854.72;96696;1177;69971;-65
2021/08/06 02:28:30;;;;;;;2.40;1.10;;;;;-128.00;-1.00;15.86;87.01;98856.38;96665;1177;87290;-63
2021/08/06 02:30:40;;;;;;;1.90;1.30;;;;;-128.00;-1.00;15.89;86.82;98844.14;96552;1177;75504;-65
2021/08/06 02:32:50;;;;;;;2.10;1.20;;;;;-128.00;-1.00;15.91;86.67;98836.52;96681;1177;81925;-64
2021/08/06 02:35:00;;;;;;;1.80;1.10;;;;;-128.00;-1.00;15.84;86.85;98836.77;96669;1177;67994;-57
2021/08/06 02:37:09;;;;;;;1.40;1.00;;;;;-128.00;-1.00;15.79;86.87;98835.91;96669;1177;68286;-53
2021/08/06 02:39:24;;;;;;;1.80;1.00;;;;;-128.00;-1.00;15.75;87.01;98832.88;96714;1176;87249;-55
2021/08/06 02:41:33;;;;;;;4.20;1.10;;;;;-128.00;-1.00;15.71;86.96;98825.50;96653;1177;74670;-55
2021/08/06 02:43:43;;;;;;;1.30;1.00;;;;;-128.00;-1.00;15.72;86.97;98832.56;96769;1176;80765;-55
2021/08/06 02:45:53;;;;;;;1.60;0.90;;;;;-128.00;-1.00;15.71;87.41;98822.77;96599;1177;68420;-57
2021/08/06 02:48:02;;;;;;;2.00;1.00;;;;;-128.00;-1.00;15.69;87.23;98825.73;96800;1176;68224;-56
2021/08/06 02:50:15;;;;;;;1.30;0.90;;;;;-128.00;-1.00;15.59;87.54;98822.12;96749;1177;87078;-64
2021/08/06 02:52:24;;;;;;;1.10;0.80;;;;;-128.00;-1.00;15.62;87.24;98819.70;96850;1177;75157;-65
2021/08/06 02:54:37;;;;;;;1.50;1.00;;;;;-128.00;-1.00;15.61;87.49;98818.05;96666;1179;80785;-56
2021/08/06 02:56:46;;;;;;;8.00;1.00;;;;;-128.00;-1.00;15.54;87.82;98822.91;96788;1177;68672;-56
2021/08/06 02:58:55;;;;;;;2.60;0.90;;;;;-128.00;-1.00;15.55;87.69;98816.37;96772;1177;67944;-56
2021/08/06 03:01:04;;;;;;;4.20;1.80;;;;;-128.00;-1.00;15.56;87.80;98815.30;96602;1177;86533;-56
2021/08/06 03:03:13;;;;;;;2.40;1.00;;;;;-128.00;-1.00;15.57;87.80;98814.23;96819;1177;75632;-55
2021/08/06 03:05:23;;;;;;;1.60;0.90;;;;;-128.00;-1.00;15.55;87.92;98810.92;96663;1176;80175;-66
2021/08/06 03:07:32;;;;;;;2.20;0.90;;;;;-128.00;-1.00;15.51;87.74;98803.55;96658;1177;68531;-65
2021/08/06 03:09:41;;;;;;;1.10;0.90;;;;;-128.00;-1.00;15.52;87.79;98814.16;96653;1176;69750;-56
2021/08/06 03:11:51;;;;;;;3.10;1.00;;;;;-128.00;-1.00;15.46;88.30;98807.06;96636;1177;85429;-55
2021/08/06 03:14:00;;;;;;;3.00;1.00;;;;;-128.00;-1.00;15.47;87.76;98796.97;96745;1176;75108;-56
2021/08/06 03:16:10;;;;;;;0.90;0.80;;;;;-128.00;-1.00;15.46;87.92;98807.06;96807;1176;80141;-55
2021/08/06 03:18:19;;;;;;;1.60;0.80;;;;;-128.00;-1.00;15.45;88.31;98797.21;96677;1176;65953;-56
2021/08/06 03:20:29;;;;;;;1.50;0.90;;;;;-128.00;-1.00;15.42;88.09;98796.91;96584;1177;68404;-66
2021/08/06 03:22:39;;;;;;;1.90;1.20;;;;;-128.00;-1.00;15.35;88.36;98783.53;96749;1177;87235;-66
2021/08/06 03:24:48;;;;;;;0.90;0.60;;;;;-128.00;-1.00;15.34;88.54;98792.77;96758;1176;75071;-56
2021/08/06 03:26:57;;;;;;;1.10;0.70;;;;;-128.00;-1.00;15.32;87.98;98778.60;96844;1176;80863;-56
2021/08/06 03:29:07;;;;;;;1.90;0.70;;;;;-128.00;-1.00;15.30;88.57;98775.30;96762;1176;68039;-66
2021/08/06 03:31:16;;;;;;;1.70;1.10;;;;;-128.00;-1.00;15.30;88.09;98776.13;96837;1176;67793;-65
2021/08/06 03:33:34;;;;;;;1.60;0.90;;;;;-128.00;-1.00;15.33;87.95;98785.66;96834;1176;87139;-65
2021/08/06 03:35:43;;;;;;;1.20;1.00;;;;;-128.00;-1.00;15.34;88.03;98776.44;96843;1176;74696;-62
2021/08/06 03:37:52;;;;;;;1.70;0.70;;;;;-128.00;-1.00;15.37;88.40;98781.36;96830;1176;80600;-64
2021/08/06 03:40:01;;;;;;;1.70;1.00;;;;;-128.00;-1.00;15.38;87.91;98774.85;96743;1177;67493;-55
2021/08/06 03:42:10;;;;;;;1.10;0.70;;;;;-128.00;-1.00;15.40;88.10;98783.56;96691;1177;69505;-56
2021/08/06 03:44:19;;;;;;;1.30;0.90;;;;;-128.00;-1.00;15.39;87.84;98773.75;96783;1177;87037;-63
2021/08/06 03:46:28;;;;;;;1.00;0.70;;;;;-128.00;-1.00;15.44;87.83;98781.95;96799;1176;75978;-64
2021/08/06 03:48:37;;;;;;;1.70;0.70;;;;;-128.00;-1.00;15.40;87.74;98769.96;96790;1176;80297;-56
2021/08/06 03:50:47;;;;;;;1.50;0.70;;;;;-128.00;-1.00;15.42;87.71;98773.23;96723;1176;68524;-55
2021/08/06 03:52:56;;;;;;;1.50;1.00;;;;;-128.00;-1.00;15.42;87.79;98778.68;96681;1177;68473;-56
2021/08/06 03:55:05;;;;;;;1.40;0.90;;;;;-128.00;-1.00;15.41;87.90;98770.79;96594;1177;86608;-63
2021/08/06 03:57:14;;;;;;;1.00;0.80;;;;;-128.00;-1.00;15.36;88.10;98766.11;96721;1177;74076;-63
2021/08/06 03:59:24;;;;;;;1.20;0.80;;;;;-128.00;-1.00;15.34;87.85;98760.94;96757;1176;80342;-64
2021/08/06 04:01:33;;;;;;;2.70;0.90;;;;;-128.00;-1.00;15.28;87.95;98761.97;96799;1176;67508;-64
2021/08/06 04:03:42;;;;;;;1.20;0.80;;;;;-128.00;-1.00;15.26;88.31;98760.59;96634;1180;68561;-57
2021/08/06 04:05:52;;;;;;;2.60;0.90;;;;;-128.00;-1.00;15.26;87.98;98764.14;96631;1177;85325;-56
2021/08/06 04:08:04;;;;;;;1.50;0.90;;;;;-128.00;-1.00;15.29;87.79;98757.35;96602;1176;75363;-56
2021/08/06 04:10:17;;;;;;;1.40;0.80;;;;;-128.00;-1.00;15.35;87.93;98764.48;96622;1177;80317;-62
2021/08/06 04:12:26;;;;;;;2.40;0.80;;;;;-128.00;-1.00;15.34;87.80;98765.55;96824;1176;67452;-63
2021/08/06 04:14:38;;;;;;;1.60;0.80;;;;;-128.00;-1.00;15.34;88.05;98766.38;96835;1176;68181;-56
2021/08/06 04:16:48;;;;;;;1.10;0.80;;;;;-128.00;-1.00;15.27;88.30;98760.31;96653;1177;86519;-56
2021/08/06 04:18:57;;;;;;;1.30;0.80;;;;;-128.00;-1.00;15.32;87.98;98759.56;96791;1176;74733;-57
2021/08/06 04:21:10;;;;;;;1.30;0.80;;;;;-128.00;-1.00;15.31;87.89;98763.34;96571;1177;82393;-55
2021/08/06 04:23:19;;;;;;;1.50;0.80;;;;;-128.00;-1.00;15.31;87.78;98761.45;96803;1176;67996;-56
2021/08/06 04:25:29;;;;;;;1.90;0.80;;;;;-128.00;-1.00;15.33;87.68;98766.63;96639;1177;67963;-66
2021/08/06 04:27:39;;;;;;;1.30;0.90;;;;;-128.00;-1.00;15.28;87.94;98756.53;96667;1177;87078;-63
2021/08/06 04:29:51;;;;;;;2.30;0.80;;;;;-128.00;-1.00;15.25;88.29;98750.78;96571;1177;75479;-65
2021/08/06 04:32:00;;;;;;;1.20;0.80;;;;;-128.00;-1.00;15.28;88.06;98751.09;96628;1177;81897;-65
2021/08/06 04:34:10;;;;;;;1.90;0.80;;;;;-128.00;-1.00;15.35;87.87;98750.88;96583;1177;66481;-64
2021/08/06 04:36:19;;;;;;;1.50;0.80;;;;;-128.00;-1.00;15.34;88.17;98750.05;96623;1177;69820;-62
2021/08/06 04:38:29;;;;;;;0.80;0.60;;;;;-128.00;-1.00;15.37;87.86;98751.43;96606;1177;87905;-58
2021/08/06 04:40:41;;;;;;;1.50;0.70;;;;;-128.00;-1.00;15.31;87.99;98744.30;96840;1177;74761;-63
2021/08/06 04:42:51;;;;;;;1.00;0.80;;;;;-128.00;-1.00;15.33;87.86;98747.58;96660;1177;81653;-63
2021/08/06 04:45:00;;;;;;;1.10;0.70;;;;;-128.00;-1.00;15.27;88.05;98735.03;96749;1176;68250;-56
2021/08/06 04:47:09;;;;;;;1.70;0.70;;;;;-128.00;-1.00;15.26;88.22;98741.55;96829;1177;68434;-56
2021/08/06 04:49:18;;;;;;;1.40;0.60;;;;;-128.00;-1.00;15.22;88.38;98733.08;96838;1176;86658;-63
2021/08/06 04:51:27;;;;;;;1.40;0.70;;;;;-128.00;-1.00;15.22;88.34;98738.52;96587;1177;75493;-64
2021/08/06 04:53:36;;;;;;;2.20;0.70;;;;;-128.00;-1.00;15.23;88.40;98731.18;96574;1177;81453;-57
2021/08/06 04:55:46;;;;;;;1.50;0.90;;;;;-128.00;-1.00;15.27;88.21;98729.59;96575;1177;65283;-58
2021/08/06 04:57:55;;;;;;;1.40;0.90;;;;;-128.00;-1.00;15.27;88.21;98730.39;96831;1176;69269;-59
2021/08/06 05:00:11;;;;;;;1.00;0.70;;;;;-128.00;-1.00;15.25;88.06;98727.12;96526;1176;86182;-60
2021/08/06 05:02:20;;;;;;;1.50;0.60;;;;;-128.00;-1.00;15.23;88.34;98725.73;96668;1177;76129;-57
2021/08/06 05:04:29;;;;;;;1.20;0.90;;;;;-128.00;-1.00;15.25;88.23;98726.30;96752;1184;80993;-64
2021/08/06 05:06:38;;;;;;;1.10;0.60;;;;;-128.00;-1.00;15.24;88.41;98728.19;96603;1177;68645;-65
2021/08/06 05:08:49;;;;;;;0.90;0.60;;;;;-128.00;-1.00;15.21;88.26;98725.19;96612;1177;67859;-56
2021/08/06 05:10:58;;;;;;;1.90;0.80;;;;;-128.00;-1.00;15.22;88.32;98724.09;96581;1177;86284;-56
2021/08/06 05:13:07;;;;;;;1.50;0.60;;;;;-128.00;-1.00;15.23;88.33;98726.56;96864;1177;74222;-57
2021/08/06 05:15:17;;;;;;;1.20;0.80;;;;;-128.00;-1.00;15.26;88.24;98727.94;96796;1177;81160;-56
2021/08/06 05:17:27;;;;;;;1.70;0.60;;;;;-128.00;-1.00;15.29;87.97;98730.14;96621;1177;66808;-57
2021/08/06 05:19:39;;;;;;;1.60;0.50;;;;;-128.00;-1.00;15.26;88.23;98725.22;96554;1176;67861;-57
2021/08/06 05:21:48;;;;;;;1.20;0.80;;;;;-128.00;-1.00;15.19;88.41;98725.43;96656;1176;86773;-57
2021/08/06 05:23:57;;;;;;;1.00;0.70;;;;;-128.00;-1.00;15.23;88.16;98731.18;96554;1177;73971;-58
2021/08/06 05:26:06;;;;;;;0.70;0.60;;;;;-128.00;-1.00;15.26;88.21;98736.11;96570;1176;81588;-58
2021/08/06 05:28:15;;;;;;;0.80;0.60;;;;;-128.00;-1.00;15.23;88.20;98747.50;96502;1177;66125;-57
2021/08/06 05:30:24;;;;;;;1.80;0.50;;;;;-128.00;-1.00;15.17;88.08;98729.49;96580;1176;68040;-56
2021/08/06 05:32:34;;;;;;;0.80;0.50;;;;;-128.00;-1.00;15.18;88.21;98733.86;96837;1177;86062;-58
2021/08/06 05:34:43;;;;;;;0.50;0.40;;;;;-128.00;-1.00;15.22;88.15;98734.97;96575;1177;74303;-57
2021/08/06 05:36:52;;;;;;;0.70;0.50;;;;;-128.00;-1.00;15.20;88.18;98734.41;96624;1177;80266;-57
2021/08/06 05:39:01;;;;;;;0.60;0.60;;;;;-128.00;-1.00;15.20;88.17;98734.41;96580;1177;67132;-56
2021/08/06 05:41:10;;;;;;;0.60;0.50;;;;;-128.00;-1.00;15.25;88.38;98734.45;96830;1176;69135;-57
2021/08/06 05:43:19;;;;;;;3.60;1.00;;;;;-128.00;-1.00;15.19;88.17;98735.52;96617;1176;86366;-57
2021/08/06 05:45:31;;;;;;;1.10;0.50;;;;;-128.00;-1.00;15.22;88.07;98722.19;96634;1177;75526;-58
2021/08/06 05:47:54;;;;;;;0.70;0.50;;;;;-128.00;-1.00;15.19;88.46;98735.52;96634;1177;80530;-59
2021/08/06 05:50:03;;;;;;;0.80;0.50;;;;;-128.00;-1.00;15.15;88.21;98724.33;96748;1176;67303;-55
2021/08/06 05:52:15;;;;;;;1.00;0.70;;;;;-128.00;-1.00;15.15;88.06;98727.05;96538;1177;69557;-58
2021/08/06 05:54:24;;;;;;;0.60;0.60;;;;;-128.00;-1.00;15.17;88.27;98721.33;96721;1176;85980;-62
2021/08/06 05:56:34;;;;;;;2.00;0.50;;;;;-128.00;-1.00;15.14;88.42;98728.11;96845;1176;74277;-64
2021/08/06 05:58:44;;;;;;;1.70;0.50;;;;;-128.00;-1.00;15.11;88.41;98719.64;96634;1177;81212;-56
2021/08/06 06:00:53;;;;;;;1.00;0.60;;;;;-128.00;-1.00;15.07;88.42;98718.54;96613;1177;67115;-56
2021/08/06 06:03:05;;;;;;;1.20;0.50;;;;;-128.00;-1.00;15.08;88.46;98722.91;96828;1176;68128;-55
2021/08/06 06:05:15;;;;;;;0.70;0.50;;;;;-128.00;-1.00;15.04;88.66;98725.31;96774;1177;87000;-56
2021/08/06 06:07:24;;;;;;;1.00;0.50;;;;;-128.00;-1.00;15.07;88.51;98724.80;96624;1177;75790;-56
2021/08/06 06:09:34;;;;;;;0.90;0.60;;;;;-128.00;-1.00;15.12;88.33;98719.41;96564;1177;81499;-63
2021/08/06 06:11:43;;;;;;;0.90;0.50;;;;;-128.00;-1.00;15.15;88.23;98720.78;96761;1176;67113;-64
2021/08/06 06:13:52;;;;;;;1.40;0.60;;;;;-128.00;-1.00;15.15;88.20;98721.61;96637;1177;69035;-58
2021/08/06 06:16:01;;;;;;;0.90;0.60;;;;;-128.00;-1.00;15.22;88.10;98724.09;96785;1177;87545;-60
2021/08/06 06:18:11;;;;;;;0.90;0.60;;;;;-128.00;-1.00;15.27;88.09;98715.99;96847;1176;74919;-61
2021/08/06 06:20:21;;;;;;;1.30;0.60;;;;;-128.00;-1.00;15.26;88.20;98722.50;96782;1176;81535;-60
2021/08/06 06:22:30;;;;;;;0.70;0.50;;;;;-128.00;-1.00;15.20;88.09;98723.53;96840;1176;67589;-60
2021/08/06 06:24:39;;;;;;;0.70;0.60;;;;;-128.00;-1.00;15.21;88.14;98720.57;96824;1176;67769;-64
2021/08/06 06:26:48;;;;;;;1.60;0.50;;;;;-128.00;-1.00;15.21;88.13;98711.59;96817;1177;86533;-63
2021/08/06 06:29:01;;;;;;;0.90;0.50;;;;;-128.00;-1.00;15.22;88.28;98724.09;96787;1176;75389;-63
2021/08/06 06:31:13;;;;;;;1.50;0.50;;;;;-128.00;-1.00;15.28;88.10;98723.05;96818;1176;81589;-64
2021/08/06 06:33:23;;;;;;;0.70;0.60;;;;;-128.00;-1.00;15.32;88.14;98722.30;96825;1176;65544;-65
2021/08/06 06:35:33;;;;;;;0.70;0.50;;;;;-128.00;-1.00;15.35;88.12;98715.51;96863;1176;68026;-57
2021/08/06 06:37:43;;;;;;;0.70;0.50;;;;;-128.00;-1.00;15.35;87.82;98729.91;96813;1176;87039;-56
2021/08/06 06:39:52;;;;;;;0.90;0.60;;;;;-128.00;-1.00;15.37;87.77;98724.22;96790;1177;74623;-63
2021/08/06 06:42:01;;;;;;;0.30;0.30;;;;;-128.00;-1.00;15.35;88.00;98726.39;96800;1177;81745;-64
2021/08/06 06:44:10;;;;;;;0.50;0.40;;;;;-128.00;-1.00;15.38;87.97;98725.05;96777;1176;67845;-59
2021/08/06 06:46:19;;;;;;;0.60;0.50;;;;;-128.00;-1.00;15.39;87.82;98730.22;96726;1176;68810;-59
2021/08/06 06:48:29;;;;;;;1.50;0.50;;;;;-128.00;-1.00;15.34;87.99;98727.46;96459;1177;85573;-61
2021/08/06 06:50:39;;;;;;;0.40;0.40;;;;;-128.00;-1.00;15.34;87.98;98713.86;96714;1176;74114;-64
2021/08/06 06:52:52;;;;;;;1.50;0.50;;;;;-128.00;-1.00;15.37;87.87;98721.50;96573;1177;81346;-64
2021/08/06 06:55:01;;;;;;;0.50;0.50;;;;;-128.00;-1.00;15.42;87.79;98726.15;96800;1177;67796;-63
2021/08/06 06:57:11;;;;;;;2.50;0.50;;;;;-128.00;-1.00;15.41;88.04;98725.32;96616;1177;69300;-63
2021/08/06 06:59:20;;;;;;;0.80;0.50;;;;;-128.00;-1.00;15.49;87.69;98732.23;96783;1176;86558;-64
2021/08/06 07:01:31;;;;;;;1.10;0.40;;;;;-128.00;-1.00;15.46;88.00;98730.00;96625;1177;76184;-63
2021/08/06 07:03:40;;;;;;;1.00;0.40;;;;;-128.00;-1.00;15.40;88.09;98729.14;96614;1177;79875;-64
2021/08/06 07:05:49;;;;;;;0.70;0.40;;;;;-128.00;-1.00;15.35;87.92;98729.91;96705;1177;69165;-62
2021/08/06 07:08:02;;;;;;;0.70;0.40;;;;;-128.00;-1.00;15.31;88.48;98733.42;96519;1177;68968;-62
2021/08/06 07:10:14;;;;;;;0.40;0.40;;;;;-128.00;-1.00;15.34;88.11;98739.17;96687;1176;85561;-56
2021/08/06 07:12:23;;;;;;;0.50;0.40;;;;;-128.00;-1.00;15.38;88.10;98733.21;96573;1177;75097;-56
2021/08/06 07:14:35;;;;;;;0.70;0.50;;;;;-128.00;-1.00;15.46;88.19;98733.58;96478;1177;81595;-57
2021/08/06 07:16:44;;;;;;;0.70;0.60;;;;;-128.00;-1.00;15.50;88.14;98734.69;96596;1177;66101;-57
2021/08/06 07:18:53;;;;;;;0.90;0.50;;;;;-128.00;-1.00;15.55;88.12;98739.33;96617;1177;69303;-62
2021/08/06 07:21:04;;;;;;;0.90;0.60;;;;;-128.00;-1.00;15.53;87.96;98736.88;96572;1176;88079;-63
2021/08/06 07:23:14;;;;;;;0.90;0.60;;;;;-128.00;-1.00;15.57;88.11;98738.02;96740;1176;76103;-63
2021/08/06 07:25:26;;;;;;;0.50;0.50;;;;;-128.00;-1.00;15.58;88.11;98734.19;96670;1176;81819;-57
2021/08/06 07:27:36;;;;;;;1.70;0.50;;;;;-128.00;-1.00;15.61;87.98;98739.11;96531;1177;67667;-56
2021/08/06 07:29:45;;;;;;;0.50;0.40;;;;;-128.00;-1.00;15.67;87.84;98748.96;96522;1177;69350;-56
2021/08/06 07:31:54;;;;;;;0.50;0.40;;;;;-128.00;-1.00;15.76;87.95;98733.78;96697;1177;86699;-57
2021/08/06 07:34:04;;;;;;;0.50;0.40;;;;;-128.00;-1.00;15.76;87.85;98736.50;96534;1177;75031;-57
2021/08/06 07:36:13;;;;;;;2.20;0.60;;;;;-128.00;-1.00;15.72;87.87;98740.00;96723;1176;79627;-57
2021/08/06 07:38:25;;;;;;;0.80;0.40;;;;;-128.00;-1.00;15.72;87.76;98740.81;96845;1176;67628;-59
2021/08/06 07:40:34;;;;;;;1.40;0.40;;;;;-128.00;-1.00;15.72;87.71;98740.00;96647;1176;68093;-59
2021/08/06 07:42:44;;;;;;;1.30;0.30;;;;;-128.00;-1.00;15.68;87.63;98742.44;96581;1177;85852;-59
2021/08/06 07:44:53;;;;;;;0.50;0.50;;;;;-128.00;-1.00;15.65;87.76;98737.52;96586;1177;75246;-63
2021/08/06 07:47:02;;;;;;;0.40;0.40;;;;;-128.00;-1.00;15.65;87.74;98737.52;96816;1177;80500;-63
2021/08/06 07:49:12;;;;;;;1.30;0.30;;;;;-128.00;-1.00;15.48;87.48;98733.30;96611;1177;68004;-64
2021/08/06 07:51:24;;;;;;;0.50;0.30;;;;;-128.00;-1.00;15.52;87.62;98745.33;96856;1176;69598;-63
2021/08/06 07:53:41;;;;;;;2.60;0.70;;;;;-128.00;-1.00;15.43;87.68;98742.23;96761;1176;85366;-60
2021/08/06 07:55:52;;;;;;;0.30;0.30;;;;;-128.00;-1.00;15.46;87.74;98746.33;96580;1178;73637;-60
2021/08/06 07:58:05;;;;;;;0.80;0.30;;;;;-128.00;-1.00;15.40;87.91;98741.92;96576;1177;80413;-58
2021/08/06 08:00:18;;;;;;;0.60;0.40;;;;;-128.00;-1.00;15.38;88.00;98746.81;96809;1176;66510;-64
2021/08/06 08:02:32;;;;;;;0.80;0.40;;;;;-128.00;-1.00;15.44;87.57;98743.05;96773;1176;68023;-64
2021/08/06 08:04:41;;;;;;;0.20;0.20;;;;;-128.00;-1.00;15.38;87.81;98742.99;96498;1177;86692;-62
2021/08/06 08:06:51;;;;;;;0.70;0.50;;;;;-128.00;-1.00;15.40;87.84;98740.03;96700;1176;75012;-63
2021/08/06 08:09:00;;;;;;;0.50;0.30;;;;;-128.00;-1.00;15.42;87.84;98743.30;96594;1177;81734;-64
2021/08/06 08:11:10;;;;;;;1.30;0.60;;;;;-128.00;-1.00;15.44;88.08;98738.41;96527;1177;66927;-63
2021/08/06 08:13:26;;;;;;;1.10;0.50;;;;;-128.00;-1.00;15.38;87.91;98739.48;96847;1180;69425;-64
2021/08/06 08:15:35;;;;;;;0.20;0.20;;;;;-128.00;-1.00;15.44;87.82;98734.89;96838;1176;87072;-63
2021/08/06 08:17:45;;;;;;;0.50;0.20;;;;;-128.00;-1.00;15.37;87.99;98743.27;96743;1176;75375;-64
2021/08/06 08:19:54;;;;;;;1.30;0.30;;;;;-128.00;-1.00;15.34;87.96;98732.90;96741;1177;81903;-57
2021/08/06 08:22:08;;;;;;;0.80;0.30;;;;;-128.00;-1.00;15.42;87.87;98740.58;96583;1177;67944;-56
2021/08/06 08:24:17;;;;;;;0.40;0.30;;;;;-128.00;-1.00;15.44;87.76;98732.17;96627;1177;68612;-56
2021/08/06 08:26:27;;;;;;;0.40;0.30;;;;;-128.00;-1.00;15.47;87.62;98743.37;96540;1177;87339;-58
2021/08/06 08:28:36;;;;;;;0.40;0.40;;;;;-128.00;-1.00;15.49;87.59;98741.23;96532;1177;74819;-62
2021/08/06 08:30:49;;;;;;;0.60;0.30;;;;;-128.00;-1.00;15.52;87.59;98743.39;96764;1177;81590;-63
2021/08/06 08:32:59;;;;;;;0.80;0.50;;;;;-128.00;-1.00;15.49;87.94;98738.50;96796;1176;67213;-62
2021/08/06 08:35:11;;;;;;;1.30;0.40;;;;;-128.00;-1.00;15.49;87.63;98740.40;96540;1177;69218;-57
2021/08/06 08:37:21;;;;;;;1.00;0.50;;;;;-128.00;-1.00;15.43;87.69;98744.13;96624;1177;85575;-56
2021/08/06 08:39:30;;;;;;;2.40;0.50;;;;;-128.00;-1.00;15.48;87.77;98741.47;96572;1177;74954;-62
2021/08/06 08:41:40;;;;;;;0.70;0.40;;;;;-128.00;-1.00;15.41;87.86;98744.38;96790;1177;80675;-62
2021/08/06 08:43:49;;;;;;;0.70;0.30;;;;;-128.00;-1.00;15.46;87.62;98740.89;96506;1177;67712;-64
2021/08/06 08:46:00;;;;;;;0.80;0.40;;;;;-128.00;-1.00;15.43;87.85;98739.52;96522;1176;67924;-62
2021/08/06 08:48:11;;;;;;;0.50;0.40;;;;;-128.00;-1.00;15.55;87.94;98739.33;96587;1177;85918;-62
2021/08/06 08:50:24;;;;;;;0.50;0.30;;;;;-128.00;-1.00;15.57;87.72;98743.45;96671;1176;75207;-62
2021/08/06 08:52:33;;;;;;;1.30;0.30;;;;;-128.00;-1.00;15.54;87.71;98746.70;96764;1180;80239;-62
2021/08/06 08:54:42;;;;;;;1.60;0.40;;;;;-128.00;-1.00;15.59;87.79;98752.17;96805;1176;68481;-58
2021/08/06 08:56:51;;;;;;;1.50;0.40;;;;;-128.00;-1.00;15.59;87.37;98741.28;96801;1177;68041;-58